sensor_id;sensor_type;location;lat;lon;timestamp;pressure;altitude;pressure_sealevel;temperature;humidity
66273;BME280;58450;52.150;4.466;2023-03-23T00:02:28;100077.16;;;12.23;100.00
66273;BME280;58450;52.150;4.466;2023-03-23T00:04:58;100078.38;;;12.27;100.00
66273;BME280;58450;52.150;4.466;2023-03-23T00:07:28;100086.84;;;12.31;100.00
66273;BME280;58450;52.150;4.466;2023-03-23T00:09:56;100110.03;;;12.39;100.00
66273;BME280;58450;52.150;4.466;2023-03-23T00:12:25;100053.13;;;12.73;100.00
66273;BME280;58450;52.150;4.466;2023-03-23T00:14:59;100071.09;;;12.60;100.00
66273;BME280;58450;52.150;4.466;2023-03-23T00:17:28;100067.34;;;12.61;100.00
66273;BME280;58450;52.150;4.466;2023-03-23T00:19:56;100064.03;;;12.27;100.00
66273;BME280;58450;52.150;4.466;2023-03-23T00:22:23;100047.50;;;12.23;100.00
66273;BME280;58450;52.150;4.466;2023-03-23T00:24:52;100041.69;;;12.20;100.00
66273;BME280;58450;52.150;4.466;2023-03-23T00:27:20;100036.97;;;12.15;100.00
66273;BME280;58450;52.150;4.466;2023-03-23T00:29:49;100041.50;;;12.15;100.00
66273;BME280;58450;52.150;4.466;2023-03-23T00:32:20;100021.59;;;12.41;100.00
66273;BME280;58450;52.150;4.466;2023-03-23T00:34:53;100036.13;;;12.40;100.00
66273;BME280;58450;52.150;4.466;2023-03-23T00:37:20;100024.75;;;12.38;100.00
66273;BME280;58450;52.150;4.466;2023-03-23T00:39:48;100022.88;;;12.38;100.00
66273;BME280;58450;52.150;4.466;2023-03-23T00:42:19;100018.28;;;12.39;100.00
66273;BME280;58450;52.150;4.466;2023-03-23T00:44:47;100019.41;;;12.31;100.00
66273;BME280;58450;52.150;4.466;2023-03-23T00:47:15;100046.78;;;12.35;100.00
66273;BME280;58450;52.150;4.466;2023-03-23T00:49:43;100026.78;;;12.43;100.00
66273;BME280;58450;52.150;4.466;2023-03-23T00:52:11;100041.84;;;12.32;100.00
66273;BME280;58450;52.150;4.466;2023-03-23T00:54:38;100031.53;;;12.47;100.00
66273;BME280;58450;52.150;4.466;2023-03-23T00:57:06;100025.13;;;12.41;100.00
66273;BME280;58450;52.150;4.466;2023-03-23T00:59:35;100037.19;;;12.39;100.00
66273;BME280;58450;52.150;4.466;2023-03-23T01:02:03;100028.88;;;12.40;100.00
66273;BME280;58450;52.150;4.466;2023-03-23T01:04:30;100023.22;;;12.49;100.00
66273;BME280;58450;52.150;4.466;2023-03-23T01:06:58;100024.31;;;12.41;100.00
66273;BME280;58450;52.150;4.466;2023-03-23T01:09:27;100019.91;;;12.47;100.00
66273;BME280;58450;52.150;4.466;2023-03-23T01:11:55;100037.31;;;12.51;100.00
66273;BME280;58450;52.150;4.466;2023-03-23T01:14:23;100000.78;;;12.23;100.00
66273;BME280;58450;52.150;4.466;2023-03-23T01:16:52;99989.00;;;12.17;100.00
66273;BME280;58450;52.150;4.466;2023-03-23T01:19:20;99995.72;;;12.08;100.00
66273;BME280;58450;52.150;4.466;2023-03-23T01:21:48;100000.00;;;12.16;100.00
66273;BME280;58450;52.150;4.466;2023-03-23T01:24:15;99984.00;;;12.21;100.00
66273;BME280;58450;52.150;4.466;2023-03-23T01:26:43;100004.00;;;12.38;100.00
66273;BME280;58450;52.150;4.466;2023-03-23T01:29:11;99978.38;;;12.48;100.00
66273;BME280;58450;52.150;4.466;2023-03-23T01:31:39;100009.56;;;12.18;100.00
66273;BME280;58450;52.150;4.466;2023-03-23T01:34:10;99992.25;;;12.26;100.00
66273;BME280;58450;52.150;4.466;2023-03-23T01:36:37;99988.84;;;12.37;100.00
66273;BME280;58450;52.150;4.466;2023-03-23T01:39:05;99988.00;;;12.11;100.00
66273;BME280;58450;52.150;4.466;2023-03-23T01:41:34;100010.75;;;12.22;100.00
66273;BME280;58450;52.150;4.466;2023-03-23T01:44:04;99991.31;;;12.14;100.00
66273;BME280;58450;52.150;4.466;2023-03-23T01:46:34;99974.16;;;12.33;100.00
66273;BME280;58450;52.150;4.466;2023-03-23T01:49:07;99965.84;;;12.35;100.00
66273;BME280;58450;52.150;4.466;2023-03-23T01:51:41;99958.41;;;12.30;100.00
66273;BME280;58450;52.150;4.466;2023-03-23T01:54:15;99976.47;;;12.30;100.00
66273;BME280;58450;52.150;4.466;2023-03-23T01:56:50;99992.84;;;12.35;100.00
66273;BME280;58450;52.150;4.466;2023-03-23T01:59:23;99952.72;;;12.38;100.00
66273;BME280;58450;52.150;4.466;2023-03-23T02:01:54;99970.44;;;12.02;100.00
66273;BME280;58450;52.150;4.466;2023-03-23T02:04:25;99948.22;;;12.32;100.00
66273;BME280;58450;52.150;4.466;2023-03-23T02:06:53;99964.72;;;12.43;100.00
66273;BME280;58450;52.150;4.466;2023-03-23T02:09:24;99967.81;;;12.21;100.00
66273;BME280;58450;52.150;4.466;2023-03-23T02:11:54;99958.81;;;12.34;100.00
66273;BME280;58450;52.150;4.466;2023-03-23T02:14:23;99975.44;;;12.31;100.00
66273;BME280;58450;52.150;4.466;2023-03-23T02:16:57;99969.88;;;12.44;100.00
66273;BME280;58450;52.150;4.466;2023-03-23T02:19:46;99991.38;;;12.07;100.00
66273;BME280;58450;52.150;4.466;2023-03-23T02:23:07;99965.53;;;12.43;100.00
66273;BME280;58450;52.150;4.466;2023-03-23T02:25:58;99978.66;;;12.39;100.00
66273;BME280;58450;52.150;4.466;2023-03-23T02:29:06;99967.19;;;12.44;100.00
66273;BME280;58450;52.150;4.466;2023-03-23T02:31:52;99969.28;;;12.42;100.00
66273;BME280;58450;52.150;4.466;2023-03-23T02:34:41;99979.28;;;12.41;100.00
66273;BME280;58450;52.150;4.466;2023-03-23T02:37:16;99952.50;;;12.40;100.00
66273;BME280;58450;52.150;4.466;2023-03-23T02:39:51;99962.47;;;12.39;100.00
66273;BME280;58450;52.150;4.466;2023-03-23T02:42:25;99965.84;;;12.35;100.00
66273;BME280;58450;52.150;4.466;2023-03-23T02:44:58;99951.16;;;12.31;100.00
66273;BME280;58450;52.150;4.466;2023-03-23T02:47:31;99964.50;;;12.19;100.00
66273;BME280;58450;52.150;4.466;2023-03-23T02:50:05;99961.50;;;12.34;100.00
66273;BME280;58450;52.150;4.466;2023-03-23T02:52:40;99958.84;;;12.27;100.00
66273;BME280;58450;52.150;4.466;2023-03-23T02:55:11;99979.47;;;12.15;100.00
66273;BME280;58450;52.150;4.466;2023-03-23T02:57:40;99955.19;;;12.15;100.00
66273;BME280;58450;52.150;4.466;2023-03-23T03:00:12;99955.03;;;12.09;100.00
66273;BME280;58450;52.150;4.466;2023-03-23T03:02:43;99967.47;;;12.10;100.00
66273;BME280;58450;52.150;4.466;2023-03-23T03:05:22;99954.31;;;12.21;100.00
66273;BME280;58450;52.150;4.466;2023-03-23T03:08:07;99950.81;;;12.20;100.00
66273;BME280;58450;52.150;4.466;2023-03-23T03:10:46;99960.94;;;12.25;100.00
66273;BME280;58450;52.150;4.466;2023-03-23T03:13:25;99990.75;;;11.98;100.00
66273;BME280;58450;52.150;4.466;2023-03-23T03:16:07;99986.34;;;11.72;100.00
66273;BME280;58450;52.150;4.466;2023-03-23T03:18:47;99985.09;;;11.29;100.00
66273;BME280;58450;52.150;4.466;2023-03-23T03:21:22;99975.22;;;11.09;100.00
66273;BME280;58450;52.150;4.466;2023-03-23T03:23:56;99981.44;;;11.09;100.00
66273;BME280;58450;52.150;4.466;2023-03-23T03:26:29;99973.34;;;11.16;100.00
66273;BME280;58450;52.150;4.466;2023-03-23T03:28:58;99976.22;;;11.21;100.00
66273;BME280;58450;52.150;4.466;2023-03-23T03:31:28;100011.00;;;11.30;100.00
66273;BME280;58450;52.150;4.466;2023-03-23T03:33:59;99971.19;;;11.38;100.00
66273;BME280;58450;52.150;4.466;2023-03-23T03:36:34;99983.53;;;11.53;100.00
66273;BME280;58450;52.150;4.466;2023-03-23T03:39:06;99974.84;;;11.51;100.00
66273;BME280;58450;52.150;4.466;2023-03-23T03:41:36;99974.50;;;11.41;100.00
66273;BME280;58450;52.150;4.466;2023-03-23T03:44:05;99979.84;;;11.47;100.00
66273;BME280;58450;52.150;4.466;2023-03-23T03:46:34;99976.31;;;11.53;100.00
66273;BME280;58450;52.150;4.466;2023-03-23T03:49:04;99971.72;;;11.54;100.00
66273;BME280;58450;52.150;4.466;2023-03-23T03:51:35;99984.63;;;11.45;100.00
66273;BME280;58450;52.150;4.466;2023-03-23T03:54:03;99995.25;;;11.33;100.00
66273;BME280;58450;52.150;4.466;2023-03-23T03:56:31;99982.84;;;11.26;100.00
66273;BME280;58450;52.150;4.466;2023-03-23T03:59:01;100008.56;;;11.15;100.00
66273;BME280;58450;52.150;4.466;2023-03-23T04:01:29;99998.19;;;11.25;100.00
66273;BME280;58450;52.150;4.466;2023-03-23T04:03:57;99999.66;;;11.14;100.00
66273;BME280;58450;52.150;4.466;2023-03-23T04:06:24;100022.25;;;11.06;100.00
66273;BME280;58450;52.150;4.466;2023-03-23T04:08:55;99994.72;;;11.04;100.00
66273;BME280;58450;52.150;4.466;2023-03-23T04:11:25;100024.94;;;11.06;100.00
66273;BME280;58450;52.150;4.466;2023-03-23T04:13:53;99997.41;;;11.04;100.00
66273;BME280;58450;52.150;4.466;2023-03-23T04:16:20;100000.69;;;11.13;100.00
66273;BME280;58450;52.150;4.466;2023-03-23T04:18:48;100017.25;;;11.10;100.00
66273;BME280;58450;52.150;4.466;2023-03-23T04:21:17;100007.94;;;11.13;100.00
66273;BME280;58450;52.150;4.466;2023-03-23T04:23:45;100024.31;;;11.18;100.00
66273;BME280;58450;52.150;4.466;2023-03-23T04:26:14;100018.50;;;11.21;100.00
66273;BME280;58450;52.150;4.466;2023-03-23T04:28:42;100025.31;;;11.30;100.00
66273;BME280;58450;52.150;4.466;2023-03-23T04:31:09;100017.66;;;11.27;100.00
66273;BME280;58450;52.150;4.466;2023-03-23T04:33:38;100003.53;;;11.32;100.00
66273;BME280;58450;52.150;4.466;2023-03-23T04:36:07;100012.03;;;11.35;100.00
66273;BME280;58450;52.150;4.466;2023-03-23T04:38:35;100020.06;;;11.42;100.00
66273;BME280;58450;52.150;4.466;2023-03-23T04:41:03;100010.34;;;11.41;100.00
66273;BME280;58450;52.150;4.466;2023-03-23T04:43:32;100030.03;;;11.42;100.00
66273;BME280;58450;52.150;4.466;2023-03-23T04:46:07;100009.53;;;11.41;100.00
66273;BME280;58450;52.150;4.466;2023-03-23T04:48:35;100050.56;;;11.36;100.00
66273;BME280;58450;52.150;4.466;2023-03-23T04:51:05;100084.31;;;11.45;100.00
66273;BME280;58450;52.150;4.466;2023-03-23T04:53:33;100058.59;;;11.49;100.00
66273;BME280;58450;52.150;4.466;2023-03-23T04:56:01;100027.69;;;11.52;100.00
66273;BME280;58450;52.150;4.466;2023-03-23T04:58:29;100073.13;;;11.48;100.00
66273;BME280;58450;52.150;4.466;2023-03-23T05:01:01;100045.31;;;11.55;100.00
66273;BME280;58450;52.150;4.466;2023-03-23T05:03:30;100045.16;;;11.36;100.00
66273;BME280;58450;52.150;4.466;2023-03-23T05:06:01;100079.56;;;11.41;100.00
66273;BME280;58450;52.150;4.466;2023-03-23T05:08:29;100032.13;;;11.33;100.00
66273;BME280;58450;52.150;4.466;2023-03-23T05:10:59;100077.72;;;11.28;100.00
66273;BME280;58450;52.150;4.466;2023-03-23T05:13:28;100097.84;;;11.25;100.00
66273;BME280;58450;52.150;4.466;2023-03-23T05:15:55;100045.78;;;11.38;100.00
66273;BME280;58450;52.150;4.466;2023-03-23T05:18:24;100054.31;;;11.28;100.00
66273;BME280;58450;52.150;4.466;2023-03-23T05:20:53;100017.63;;;11.34;100.00
66273;BME280;58450;52.150;4.466;2023-03-23T05:23:20;100069.47;;;11.16;100.00
66273;BME280;58450;52.150;4.466;2023-03-23T05:25:53;100072.97;;;11.16;100.00
66273;BME280;58450;52.150;4.466;2023-03-23T05:28:21;100041.28;;;11.18;100.00
66273;BME280;58450;52.150;4.466;2023-03-23T05:30:49;100039.63;;;11.17;100.00
66273;BME280;58450;52.150;4.466;2023-03-23T05:33:16;100061.38;;;11.16;100.00
66273;BME280;58450;52.150;4.466;2023-03-23T05:35:46;100082.31;;;11.07;100.00
66273;BME280;58450;52.150;4.466;2023-03-23T05:38:14;100082.53;;;11.05;100.00
66273;BME280;58450;52.150;4.466;2023-03-23T05:40:42;100077.97;;;11.13;100.00
66273;BME280;58450;52.150;4.466;2023-03-23T05:43:10;100071.34;;;11.08;100.00
66273;BME280;58450;52.150;4.466;2023-03-23T05:45:38;100086.84;;;11.13;100.00
66273;BME280;58450;52.150;4.466;2023-03-23T05:48:05;100118.97;;;11.15;100.00
66273;BME280;58450;52.150;4.466;2023-03-23T05:50:33;100097.00;;;11.11;100.00
66273;BME280;58450;52.150;4.466;2023-03-23T05:53:02;100101.78;;;11.02;100.00
66273;BME280;58450;52.150;4.466;2023-03-23T05:55:30;100090.41;;;11.00;100.00
66273;BME280;58450;52.150;4.466;2023-03-23T05:57:58;100089.34;;;11.15;100.00
66273;BME280;58450;52.150;4.466;2023-03-23T06:00:26;100107.81;;;11.04;100.00
66273;BME280;58450;52.150;4.466;2023-03-23T06:02:56;100086.66;;;11.15;100.00
66273;BME280;58450;52.150;4.466;2023-03-23T06:05:24;100129.13;;;10.99;100.00
66273;BME280;58450;52.150;4.466;2023-03-23T06:07:51;100100.97;;;11.02;100.00
66273;BME280;58450;52.150;4.466;2023-03-23T06:10:21;100083.78;;;10.96;100.00
66273;BME280;58450;52.150;4.466;2023-03-23T06:12:49;100140.31;;;10.96;100.00
66273;BME280;58450;52.150;4.466;2023-03-23T06:15:17;100099.09;;;10.89;100.00
66273;BME280;58450;52.150;4.466;2023-03-23T06:17:46;100128.72;;;10.96;100.00
66273;BME280;58450;52.150;4.466;2023-03-23T06:20:13;100106.34;;;10.95;100.00
66273;BME280;58450;52.150;4.466;2023-03-23T06:22:41;100133.69;;;11.05;100.00
66273;BME280;58450;52.150;4.466;2023-03-23T06:25:10;100110.25;;;11.19;100.00
66273;BME280;58450;52.150;4.466;2023-03-23T06:27:40;100135.97;;;10.95;100.00
66273;BME280;58450;52.150;4.466;2023-03-23T06:30:09;100132.22;;;11.23;100.00
66273;BME280;58450;52.150;4.466;2023-03-23T06:32:38;100139.91;;;10.92;100.00
66273;BME280;58450;52.150;4.466;2023-03-23T06:35:06;100128.50;;;11.24;100.00
66273;BME280;58450;52.150;4.466;2023-03-23T06:37:35;100146.53;;;11.10;100.00
66273;BME280;58450;52.150;4.466;2023-03-23T06:40:05;100130.78;;;11.07;100.00
66273;BME280;58450;52.150;4.466;2023-03-23T06:42:34;100157.94;;;10.99;100.00
66273;BME280;58450;52.150;4.466;2023-03-23T06:45:05;100131.41;;;11.29;100.00
66273;BME280;58450;52.150;4.466;2023-03-23T06:47:34;100145.91;;;11.15;100.00
66273;BME280;58450;52.150;4.466;2023-03-23T06:50:02;100148.41;;;11.23;100.00
66273;BME280;58450;52.150;4.466;2023-03-23T06:52:30;100142.38;;;11.07;100.00
66273;BME280;58450;52.150;4.466;2023-03-23T06:54:58;100144.88;;;10.82;100.00
66273;BME280;58450;52.150;4.466;2023-03-23T06:57:25;100121.91;;;10.86;100.00
66273;BME280;58450;52.150;4.466;2023-03-23T06:59:53;100131.63;;;10.81;100.00
66273;BME280;58450;52.150;4.466;2023-03-23T07:02:22;100152.75;;;10.90;100.00
66273;BME280;58450;52.150;4.466;2023-03-23T07:04:51;100152.31;;;11.20;100.00
66273;BME280;58450;52.150;4.466;2023-03-23T07:07:20;100155.03;;;11.27;100.00
66273;BME280;58450;52.150;4.466;2023-03-23T07:09:47;100134.50;;;11.19;100.00
66273;BME280;58450;52.150;4.466;2023-03-23T07:12:15;100154.41;;;11.12;100.00
66273;BME280;58450;52.150;4.466;2023-03-23T07:14:42;100150.25;;;11.09;100.00
66273;BME280;58450;52.150;4.466;2023-03-23T07:17:10;100176.13;;;10.76;100.00
66273;BME280;58450;52.150;4.466;2023-03-23T07:19:40;100157.69;;;10.73;100.00
66273;BME280;58450;52.150;4.466;2023-03-23T07:22:07;100160.38;;;10.73;100.00
66273;BME280;58450;52.150;4.466;2023-03-23T07:24:35;100183.78;;;10.79;100.00
66273;BME280;58450;52.150;4.466;2023-03-23T07:27:03;100143.00;;;10.83;100.00
66273;BME280;58450;52.150;4.466;2023-03-23T07:29:31;100146.53;;;11.03;100.00
66273;BME280;58450;52.150;4.466;2023-03-23T07:32:01;100168.47;;;11.41;100.00
66273;BME280;58450;52.150;4.466;2023-03-23T07:34:28;100152.94;;;11.22;100.00
66273;BME280;58450;52.150;4.466;2023-03-23T07:36:58;100139.69;;;11.14;100.00
66273;BME280;58450;52.150;4.466;2023-03-23T07:39:26;100154.38;;;11.18;100.00
66273;BME280;58450;52.150;4.466;2023-03-23T07:41:54;100143.38;;;11.53;100.00
66273;BME280;58450;52.150;4.466;2023-03-23T07:44:22;100148.41;;;11.95;100.00
66273;BME280;58450;52.150;4.466;2023-03-23T07:46:50;100153.44;;;12.37;100.00
66273;BME280;58450;52.150;4.466;2023-03-23T07:49:18;100142.94;;;12.61;100.00
66273;BME280;58450;52.150;4.466;2023-03-23T07:51:46;100159.94;;;12.23;100.00
66273;BME280;58450;52.150;4.466;2023-03-23T07:54:15;100162.44;;;12.18;100.00
66273;BME280;58450;52.150;4.466;2023-03-23T07:56:43;100144.00;;;12.15;100.00
66273;BME280;58450;52.150;4.466;2023-03-23T07:59:11;100194.09;;;11.83;100.00
66273;BME280;58450;52.150;4.466;2023-03-23T08:01:39;100181.25;;;11.65;100.00
66273;BME280;58450;52.150;4.466;2023-03-23T08:04:07;100164.53;;;11.43;100.00
66273;BME280;58450;52.150;4.466;2023-03-23T08:06:35;100177.75;;;11.65;100.00
66273;BME280;58450;52.150;4.466;2023-03-23T08:09:03;100190.94;;;12.00;100.00
66273;BME280;58450;52.150;4.466;2023-03-23T08:11:34;100194.69;;;12.06;100.00
66273;BME280;58450;52.150;4.466;2023-03-23T08:14:03;100207.66;;;12.29;100.00
66273;BME280;58450;52.150;4.466;2023-03-23T08:16:31;100191.03;;;12.32;100.00
66273;BME280;58450;52.150;4.466;2023-03-23T08:18:59;100192.59;;;13.11;100.00
66273;BME280;58450;52.150;4.466;2023-03-23T08:21:27;100231.94;;;12.75;100.00
66273;BME280;58450;52.150;4.466;2023-03-23T08:23:54;100228.91;;;12.90;100.00
66273;BME280;58450;52.150;4.466;2023-03-23T08:26:22;100200.56;;;12.74;100.00
66273;BME280;58450;52.150;4.466;2023-03-23T08:28:51;100210.94;;;12.77;100.00
66273;BME280;58450;52.150;4.466;2023-03-23T08:31:19;100199.72;;;12.73;100.00
66273;BME280;58450;52.150;4.466;2023-03-23T08:33:47;100205.00;;;12.61;100.00
66273;BME280;58450;52.150;4.466;2023-03-23T08:36:15;100232.31;;;12.39;100.00
66273;BME280;58450;52.150;4.466;2023-03-23T08:38:42;100198.41;;;12.05;100.00
66273;BME280;58450;52.150;4.466;2023-03-23T08:41:10;100193.16;;;12.23;100.00
66273;BME280;58450;52.150;4.466;2023-03-23T08:43:38;100216.03;;;12.14;100.00
66273;BME280;58450;52.150;4.466;2023-03-23T08:46:07;100219.19;;;11.71;100.00
66273;BME280;58450;52.150;4.466;2023-03-23T08:48:37;100205.53;;;11.65;100.00
66273;BME280;58450;52.150;4.466;2023-03-23T08:51:06;100227.47;;;11.89;100.00
66273;BME280;58450;52.150;4.466;2023-03-23T08:53:34;100212.63;;;12.32;100.00
66273;BME280;58450;52.150;4.466;2023-03-23T08:56:04;100242.28;;;12.32;100.00
66273;BME280;58450;52.150;4.466;2023-03-23T08:58:32;100290.22;;;12.37;100.00
66273;BME280;58450;52.150;4.466;2023-03-23T09:01:00;100220.59;;;12.59;100.00
66273;BME280;58450;52.150;4.466;2023-03-23T09:03:29;100226.84;;;13.17;100.00
66273;BME280;58450;52.150;4.466;2023-03-23T09:06:02;100216.44;;;13.21;100.00
66273;BME280;58450;52.150;4.466;2023-03-23T09:08:32;100226.66;;;13.44;100.00
66273;BME280;58450;52.150;4.466;2023-03-23T09:11:03;100200.50;;;13.82;100.00
66273;BME280;58450;52.150;4.466;2023-03-23T09:13:33;100233.78;;;13.64;100.00
66273;BME280;58450;52.150;4.466;2023-03-23T09:16:01;100214.56;;;14.28;100.00
66273;BME280;58450;52.150;4.466;2023-03-23T09:18:31;100212.31;;;14.25;100.00
66273;BME280;58450;52.150;4.466;2023-03-23T09:21:01;100209.13;;;13.72;100.00
66273;BME280;58450;52.150;4.466;2023-03-23T09:23:30;100214.69;;;14.52;100.00
66273;BME280;58450;52.150;4.466;2023-03-23T09:25:59;100203.72;;;14.46;100.00
66273;BME280;58450;52.150;4.466;2023-03-23T09:28:29;100223.59;;;14.22;100.00
66273;BME280;58450;52.150;4.466;2023-03-23T09:30:58;100200.72;;;14.17;100.00
66273;BME280;58450;52.150;4.466;2023-03-23T09:33:25;100207.97;;;14.54;100.00
66273;BME280;58450;52.150;4.466;2023-03-23T09:35:56;100231.59;;;13.72;100.00
66273;BME280;58450;52.150;4.466;2023-03-23T09:38:24;100244.63;;;14.19;100.00
66273;BME280;58450;52.150;4.466;2023-03-23T09:40:56;100234.09;;;14.30;100.00
66273;BME280;58450;52.150;4.466;2023-03-23T09:43:51;100230.63;;;14.41;100.00
66273;BME280;58450;52.150;4.466;2023-03-23T09:46:45;100284.84;;;13.97;100.00
66273;BME280;58450;52.150;4.466;2023-03-23T09:49:25;100244.72;;;14.81;100.00
66273;BME280;58450;52.150;4.466;2023-03-23T09:52:01;100265.91;;;14.65;100.00
66273;BME280;58450;52.150;4.466;2023-03-23T09:54:36;100254.72;;;14.61;100.00
66273;BME280;58450;52.150;4.466;2023-03-23T09:57:14;100258.00;;;13.96;100.00
66273;BME280;58450;52.150;4.466;2023-03-23T09:59:51;100242.06;;;15.04;100.00
66273;BME280;58450;52.150;4.466;2023-03-23T10:02:28;100256.75;;;14.85;100.00
66273;BME280;58450;52.150;4.466;2023-03-23T10:05:16;100263.00;;;14.85;100.00
66273;BME280;58450;52.150;4.466;2023-03-23T10:07:54;100281.63;;;14.44;100.00
66273;BME280;58450;52.150;4.466;2023-03-23T10:10:29;100277.31;;;13.99;100.00
66273;BME280;58450;52.150;4.466;2023-03-23T10:13:07;100284.41;;;13.50;100.00
66273;BME280;58450;52.150;4.466;2023-03-23T10:15:45;100297.66;;;13.58;100.00
66273;BME280;58450;52.150;4.466;2023-03-23T10:18:19;100295.53;;;13.85;100.00
66273;BME280;58450;52.150;4.466;2023-03-23T10:20:55;100287.75;;;13.96;100.00
66273;BME280;58450;52.150;4.466;2023-03-23T10:23:44;100287.94;;;13.18;100.00
66273;BME280;58450;52.150;4.466;2023-03-23T10:26:22;100321.22;;;13.19;100.00
66273;BME280;58450;52.150;4.466;2023-03-23T10:29:11;100290.22;;;13.21;100.00
66273;BME280;58450;52.150;4.466;2023-03-23T10:31:46;100276.00;;;13.00;100.00
66273;BME280;58450;52.150;4.466;2023-03-23T10:34:20;100282.38;;;13.38;100.00
66273;BME280;58450;52.150;4.466;2023-03-23T10:36:59;100271.81;;;13.87;100.00
66273;BME280;58450;52.150;4.466;2023-03-23T10:39:40;100310.00;;;13.98;100.00
66273;BME280;58450;52.150;4.466;2023-03-23T10:42:22;100337.16;;;14.10;100.00
66273;BME280;58450;52.150;4.466;2023-03-23T10:44:51;100353.91;;;13.74;100.00
66273;BME280;58450;52.150;4.466;2023-03-23T10:47:19;100272.53;;;13.76;100.00
66273;BME280;58450;52.150;4.466;2023-03-23T10:49:50;100290.16;;;13.60;100.00
66273;BME280;58450;52.150;4.466;2023-03-23T10:52:27;100294.75;;;13.27;100.00
66273;BME280;58450;52.150;4.466;2023-03-23T10:55:03;100310.06;;;13.08;100.00
66273;BME280;58450;52.150;4.466;2023-03-23T10:57:36;100277.09;;;12.93;100.00
66273;BME280;58450;52.150;4.466;2023-03-23T11:00:07;100282.44;;;13.32;100.00
66273;BME280;58450;52.150;4.466;2023-03-23T11:02:47;100314.13;;;13.56;100.00
66273;BME280;58450;52.150;4.466;2023-03-23T11:05:32;100334.09;;;13.55;100.00
66273;BME280;58450;52.150;4.466;2023-03-23T11:08:04;100306.72;;;13.70;100.00
66273;BME280;58450;52.150;4.466;2023-03-23T11:10:47;100311.78;;;13.85;100.00
66273;BME280;58450;52.150;4.466;2023-03-23T11:13:18;100289.69;;;14.63;100.00
66273;BME280;58450;52.150;4.466;2023-03-23T11:15:48;100287.94;;;14.38;100.00
66273;BME280;58450;52.150;4.466;2023-03-23T11:18:19;100301.78;;;14.30;100.00
66273;BME280;58450;52.150;4.466;2023-03-23T11:20:52;100277.75;;;14.89;100.00
66273;BME280;58450;52.150;4.466;2023-03-23T11:23:24;100320.00;;;15.21;100.00
66273;BME280;58450;52.150;4.466;2023-03-23T11:26:01;100284.16;;;14.76;100.00
66273;BME280;58450;52.150;4.466;2023-03-23T11:28:37;100280.53;;;14.64;100.00
66273;BME280;58450;52.150;4.466;2023-03-23T11:31:13;100292.59;;;14.12;100.00
66273;BME280;58450;52.150;4.466;2023-03-23T11:33:50;100272.25;;;14.59;100.00
66273;BME280;58450;52.150;4.466;2023-03-23T11:36:29;100284.34;;;14.94;100.00
66273;BME280;58450;52.150;4.466;2023-03-23T11:38:58;100362.78;;;14.07;100.00
66273;BME280;58450;52.150;4.466;2023-03-23T11:41:33;100295.50;;;13.41;100.00
66273;BME280;58450;52.150;4.466;2023-03-23T11:44:09;100292.63;;;13.87;100.00
66273;BME280;58450;52.150;4.466;2023-03-23T11:46:48;100283.84;;;13.09;100.00
66273;BME280;58450;52.150;4.466;2023-03-23T11:49:35;100279.84;;;13.18;100.00
66273;BME280;58450;52.150;4.466;2023-03-23T11:52:13;100300.03;;;13.48;100.00
66273;BME280;58450;52.150;4.466;2023-03-23T11:54:49;100301.41;;;13.57;100.00
66273;BME280;58450;52.150;4.466;2023-03-23T11:57:23;100326.44;;;13.45;100.00
66273;BME280;58450;52.150;4.466;2023-03-23T11:59:51;100297.47;;;14.03;100.00
66273;BME280;58450;52.150;4.466;2023-03-23T12:02:32;100358.75;;;14.35;100.00
66273;BME280;58450;52.150;4.466;2023-03-23T12:05:27;100307.00;;;14.62;100.00
66273;BME280;58450;52.150;4.466;2023-03-23T12:08:11;100318.63;;;13.88;100.00
66273;BME280;58450;52.150;4.466;2023-03-23T12:10:54;100307.78;;;14.13;100.00
66273;BME280;58450;52.150;4.466;2023-03-23T12:13:46;100287.09;;;14.38;100.00
66273;BME280;58450;52.150;4.466;2023-03-23T12:16:34;100292.31;;;15.19;100.00
66273;BME280;58450;52.150;4.466;2023-03-23T12:19:17;100264.50;;;14.81;100.00
66273;BME280;58450;52.150;4.466;2023-03-23T12:21:57;100348.84;;;14.47;100.00
66273;BME280;58450;52.150;4.466;2023-03-23T12:24:43;100350.00;;;14.14;100.00
66273;BME280;58450;52.150;4.466;2023-03-23T12:27:25;100290.16;;;14.04;100.00
66273;BME280;58450;52.150;4.466;2023-03-23T12:30:18;100285.28;;;14.99;100.00
66273;BME280;58450;52.150;4.466;2023-03-23T12:33:09;100261.22;;;14.42;100.00
66273;BME280;58450;52.150;4.466;2023-03-23T12:35:51;100301.72;;;13.93;100.00
66273;BME280;58450;52.150;4.466;2023-03-23T12:38:41;100269.38;;;13.61;100.00
66273;BME280;58450;52.150;4.466;2023-03-23T12:41:25;100311.38;;;14.07;100.00
66273;BME280;58450;52.150;4.466;2023-03-23T12:44:01;100261.06;;;14.37;100.00
66273;BME280;58450;52.150;4.466;2023-03-23T12:46:57;100290.13;;;14.97;100.00
66273;BME280;58450;52.150;4.466;2023-03-23T12:49:37;100267.81;;;15.26;100.00
66273;BME280;58450;52.150;4.466;2023-03-23T12:52:14;100279.16;;;15.04;100.00
66273;BME280;58450;52.150;4.466;2023-03-23T12:54:50;100308.53;;;14.39;100.00
66273;BME280;58450;52.150;4.466;2023-03-23T12:57:26;100265.56;;;14.61;100.00
66273;BME280;58450;52.150;4.466;2023-03-23T13:00:05;100288.81;;;14.69;100.00
66273;BME280;58450;52.150;4.466;2023-03-23T13:02:43;100291.28;;;14.89;100.00
66273;BME280;58450;52.150;4.466;2023-03-23T13:05:28;100301.03;;;15.21;100.00
66273;BME280;58450;52.150;4.466;2023-03-23T13:08:05;100319.44;;;14.51;100.00
66273;BME280;58450;52.150;4.466;2023-03-23T13:10:44;100285.78;;;14.59;100.00